Time;durP1;ratioP1;P1;durP2;ratioP2;P2;SDS_P1;SDS_P2;PMS_P1;PMS_P2;Temp;Humidity;BMP_temperature;BMP_pressure;BME280_temperature;BME280_humidity;BME280_pressure;Samples;Min_cycle;Max_cycle;Signal;HPM_P1;HPM_P2
2023/07/12 00:00:26;;;;;;;;;;;;;;;17.41;100.00;100993.84;5014134;28;20075;-72
2023/07/12 00:02:51;;;;;;;;;;;;;;;17.27;100.00;100996.31;5032232;28;20006;-72
2023/07/12 00:05:17;;;;;;;;;;;;;;;17.09;100.00;100985.84;5032069;28;20312;-71
2023/07/12 00:07:45;;;;;;;;;;;;;;;16.91;100.00;100987.97;5032146;28;19913;-72
2023/07/12 00:10:31;;;;;;;;;;;;;;;16.75;100.00;100983.50;5031876;28;20198;-71
2023/07/12 00:12:56;;;;;;;;;;;;;;;16.58;100.00;100985.41;5030850;28;19920;-75
2023/07/12 00:15:23;;;;;;;;;;;;;;;16.46;100.00;100984.97;5032058;28;19917;-72
2023/07/12 00:17:51;;;;;;;;;;;;;;;16.35;100.00;100972.75;5031920;28;19912;-72
2023/07/12 00:20:19;;;;;;;;;;;;;;;16.27;100.00;100974.63;5032040;28;19913;-72
2023/07/12 00:22:45;;;;;;;;;;;;;;;16.18;100.00;100979.19;5031967;28;19963;-72
2023/07/12 00:25:10;;;;;;;;;;;;;;;16.09;100.00;100972.19;5031843;28;19909;-72
2023/07/12 00:27:35;;;;;;;;;;;;;;;15.99;100.00;100962.47;5032074;28;20012;-71
2023/07/12 00:30:03;;;;;;;;;;;;;;;15.90;100.00;100942.06;5033698;28;19913;-72
2023/07/12 00:32:29;;;;;;;;;;;;;;;15.80;100.00;100936.03;5032790;28;20015;-78
2023/07/12 00:34:57;;;;;;;;;;;;;;;15.72;100.00;100927.97;5034721;28;19913;-78
2023/07/12 00:37:22;;;;;;;;;;;;;;;15.63;100.00;100936.03;5017225;28;19917;-78
2023/07/12 00:39:47;;;;;;;;;;;;;;;15.60;100.00;100941.75;5016885;28;20059;-78
2023/07/12 00:42:19;;;;;;;;;;;;;;;15.57;100.00;100931.34;5000718;28;19917;-78
2023/07/12 00:44:47;;;;;;;;;;;;;;;15.57;100.00;100944.75;5035324;28;19948;-78
2023/07/12 00:47:13;;;;;;;;;;;;;;;15.56;100.00;100937.72;5034629;28;19909;-78
2023/07/12 00:49:39;;;;;;;;;;;;;;;15.58;100.00;100916.91;5035154;28;19920;-78
2023/07/12 00:52:09;;;;;;;;;;;;;;;15.62;100.00;100904.03;5034320;28;19913;-77
2023/07/12 00:54:54;;;;;;;;;;;;;;;15.65;100.00;100928.66;5034353;28;19917;-80
2023/07/12 00:57:24;;;;;;;;;;;;;;;15.66;100.00;100940.22;5017519;28;20363;-77
2023/07/12 00:59:50;;;;;;;;;;;;;;;15.68;100.00;100948.94;5034758;28;19912;-78
2023/07/12 01:02:16;;;;;;;;;;;;;;;15.67;100.00;100940.06;5016427;28;19971;-77
2023/07/12 01:04:44;;;;;;;;;;;;;;;15.68;100.00;100940.88;5034228;28;19913;-77
2023/07/12 01:07:09;;;;;;;;;;;;;;;15.68;100.00;100944.41;5016737;28;19909;-78
2023/07/12 01:09:35;;;;;;;;;;;;;;;15.71;100.00;100947.75;5034836;28;20376;-78
2023/07/12 01:12:00;;;;;;;;;;;;;;;15.70;100.00;100963.00;5016614;28;19913;-78
2023/07/12 01:14:26;;;;;;;;;;;;;;;15.72;100.00;100987.84;5034130;28;20269;-77
2023/07/12 01:16:55;;;;;;;;;;;;;;;15.72;100.00;100979.78;5000034;28;20264;-77
2023/07/12 01:19:21;;;;;;;;;;;;;;;15.73;100.00;100970.69;5034027;28;19963;-78
2023/07/12 01:21:48;;;;;;;;;;;;;;;15.74;100.00;100980.44;5016644;28;20341;-78
2023/07/12 01:24:14;;;;;;;;;;;;;;;15.75;100.00;100975.91;5034234;28;19920;-78
2023/07/12 01:26:41;;;;;;;;;;;;;;;15.74;100.00;100958.97;5033995;28;19971;-79
2023/07/12 01:29:07;;;;;;;;;;;;;;;15.74;100.00;100950.09;5033647;28;19916;-79
2023/07/12 01:31:32;;;;;;;;;;;;;;;15.74;100.00;100966.19;5016152;28;19909;-77
2023/07/12 01:33:57;;;;;;;;;;;;;;;15.73;100.00;100951.94;5016195;28;20521;-77
2023/07/12 01:36:23;;;;;;;;;;;;;;;15.72;100.00;100954.78;5033511;28;19920;-76
2023/07/12 01:38:51;;;;;;;;;;;;;;;15.71;100.00;100956.63;5016677;28;20424;-78
2023/07/12 01:41:16;;;;;;;;;;;;;;;15.72;100.00;100946.75;5034361;28;20380;-77
2023/07/12 01:43:42;;;;;;;;;;;;;;;15.74;100.00;100963.50;5016336;28;19913;-76
2023/07/12 01:46:07;;;;;;;;;;;;;;;15.75;100.00;100952.63;5033516;28;19921;-79
2023/07/12 01:48:33;;;;;;;;;;;;;;;15.80;100.00;100950.28;5034105;28;19913;-77
2023/07/12 01:50:59;;;;;;;;;;;;;;;15.81;100.00;100943.09;5033739;28;19917;-78
2023/07/12 01:53:24;;;;;;;;;;;;;;;15.83;100.00;100944.56;5016064;28;19920;-79
2023/07/12 01:55:49;;;;;;;;;;;;;;;15.85;100.00;100929.16;5016797;28;19983;-77
2023/07/12 01:58:15;;;;;;;;;;;;;;;15.88;100.00;100949.41;5033659;28;19913;-77
2023/07/12 02:00:40;;;;;;;;;;;;;;;15.91;100.00;100935.66;5033809;28;19913;-77
2023/07/12 02:03:07;;;;;;;;;;;;;;;15.92;100.00;100947.25;5034418;28;20233;-76
2023/07/12 02:05:32;;;;;;;;;;;;;;;15.92;100.00;100940.03;5033902;28;19913;-76
2023/07/12 02:07:58;;;;;;;;;;;;;;;15.93;100.00;100947.06;5033582;28;20099;-77
2023/07/12 02:10:24;;;;;;;;;;;;;;;15.93;100.00;100946.22;5016012;28;19913;-76
2023/07/12 02:12:49;;;;;;;;;;;;;;;15.93;100.00;100941.72;5033835;28;19909;-78
2023/07/12 02:15:15;;;;;;;;;;;;;;;15.95;100.00;100938.84;5033591;28;20333;-77
2023/07/12 02:17:40;;;;;;;;;;;;;;;15.99;100.00;100954.44;5033697;28;19909;-77
2023/07/12 02:20:07;;;;;;;;;;;;;;;15.99;100.00;100950.94;4999603;28;20353;-78
2023/07/12 02:22:33;;;;;;;;;;;;;;;16.01;100.00;100949.72;5015264;28;20008;-77
2023/07/12 02:24:59;;;;;;;;;;;;;;;16.03;100.00;100954.91;5033316;28;20387;-78
2023/07/12 02:27:24;;;;;;;;;;;;;;;16.04;100.00;100945.88;5016003;28;19917;-77
2023/07/12 02:29:49;;;;;;;;;;;;;;;16.07;100.00;100942.00;5034203;28;19976;-79
2023/07/12 02:32:15;;;;;;;;;;;;;;;16.07;100.00;100948.19;5017414;28;20288;-78
2023/07/12 02:34:40;;;;;;;;;;;;;;;16.09;100.00;100953.41;5033379;28;19909;-80
2023/07/12 02:37:05;;;;;;;;;;;;;;;16.10;100.00;100949.72;5001352;28;19968;-76
2023/07/12 02:39:30;;;;;;;;;;;;;;;16.11;100.00;100948.69;5037370;28;19913;-79
2023/07/12 02:41:56;;;;;;;;;;;;;;;16.07;100.00;100933.97;5037774;28;20241;-79
2023/07/12 02:44:21;;;;;;;;;;;;;;;16.06;100.00;100943.84;5019161;28;20250;-79
2023/07/12 02:46:46;;;;;;;;;;;;;;;16.07;100.00;100942.00;5037258;28;19909;-78
2023/07/12 02:49:12;;;;;;;;;;;;;;;16.04;100.00;100940.50;5020077;28;19967;-79
2023/07/12 02:51:38;;;;;;;;;;;;;;;16.03;100.00;100952.22;5036778;28;19909;-80
2023/07/12 02:54:03;;;;;;;;;;;;;;;16.01;100.00;100955.09;5019630;28;20023;-78
2023/07/12 02:56:28;;;;;;;;;;;;;;;16.01;100.00;100951.56;5019205;28;20353;-78
2023/07/12 02:58:53;;;;;;;;;;;;;;;16.01;100.00;100941.66;5037116;28;20296;-79
2023/07/12 03:01:19;;;;;;;;;;;;;;;15.98;100.00;100944.69;5018865;28;19952;-79
2023/07/12 03:03:44;;;;;;;;;;;;;;;15.93;100.00;100935.47;5018928;28;19913;-78
2023/07/12 03:06:10;;;;;;;;;;;;;;;15.88;100.00;100946.72;5019916;28;19913;-78
2023/07/12 03:08:35;;;;;;;;;;;;;;;15.87;100.00;100942.41;5019494;28;20393;-78
2023/07/12 03:11:05;;;;;;;;;;;;;;;15.86;100.00;100935.34;5036602;28;19920;-78
2023/07/12 03:13:30;;;;;;;;;;;;;;;15.84;100.00;100945.44;5018942;28;19908;-78
2023/07/12 03:15:56;;;;;;;;;;;;;;;15.80;100.00;100942.22;5002377;28;19919;-78
2023/07/12 03:18:21;;;;;;;;;;;;;;;15.79;100.00;100943.22;5018686;28;19935;-78
2023/07/12 03:20:46;;;;;;;;;;;;;;;15.78;100.00;100943.41;5036691;28;19916;-78
2023/07/12 03:23:11;;;;;;;;;;;;;;;15.76;100.00;100946.22;5035884;28;20360;-79
2023/07/12 03:25:37;;;;;;;;;;;;;;;15.74;100.00;100948.25;5017952;28;19916;-78
2023/07/12 03:28:02;;;;;;;;;;;;;;;15.75;100.00;100949.94;5019035;28;19935;-78
2023/07/12 03:30:27;;;;;;;;;;;;;;;15.74;100.00;100950.09;5002203;28;19980;-78
2023/07/12 03:32:52;;;;;;;;;;;;;;;15.72;100.00;100949.41;5019071;28;19940;-79
2023/07/12 03:35:18;;;;;;;;;;;;;;;15.69;100.00;100950.63;5018370;28;19975;-79
2023/07/12 03:37:43;;;;;;;;;;;;;;;15.70;100.00;100938.84;5035761;28;19949;-79
2023/07/12 03:40:09;;;;;;;;;;;;;;;15.67;100.00;100928.47;5017921;28;20360;-78
2023/07/12 03:42:34;;;;;;;;;;;;;;;15.62;100.00;100939.72;5035706;28;19913;-78
2023/07/12 03:44:59;;;;;;;;;;;;;;;15.57;100.00;100943.91;5018708;28;20003;-78
2023/07/12 03:47:25;;;;;;;;;;;;;;;15.50;100.00;100946.44;5017630;28;19920;-79
2023/07/12 03:49:50;;;;;;;;;;;;;;;15.44;100.00;100944.44;5035226;28;19913;-77
2023/07/12 03:52:15;;;;;;;;;;;;;;;15.37;100.00;100946.94;5035845;28;19939;-79
2023/07/12 03:54:41;;;;;;;;;;;;;;;15.35;100.00;100951.66;5017472;28;19913;-79
2023/07/12 03:57:06;;;;;;;;;;;;;;;15.34;100.00;100952.63;5035499;28;20007;-78
2023/07/12 03:59:32;;;;;;;;;;;;;;;15.33;100.00;100953.63;5035276;28;20000;-79
2023/07/12 04:01:57;;;;;;;;;;;;;;;15.33;100.00;100970.56;5018083;28;20003;-79
2023/07/12 04:04:22;;;;;;;;;;;;;;;15.37;100.00;100971.06;5035906;28;20305;-78
2023/07/12 04:06:48;;;;;;;;;;;;;;;15.43;100.00;100959.66;5035427;28;19978;-79
2023/07/12 04:09:13;;;;;;;;;;;;;;;15.50;100.00;100963.34;5035238;28;19909;-78
2023/07/12 04:11:41;;;;;;;;;;;;;;;15.58;100.00;100969.72;5017255;28;19917;-77
2023/07/12 04:14:06;;;;;;;;;;;;;;;15.64;100.00;100964.50;5017860;28;19917;-78
2023/07/12 04:16:32;;;;;;;;;;;;;;;15.66;100.00;100957.16;5035185;28;19963;-78
2023/07/12 04:18:57;;;;;;;;;;;;;;;15.67;100.00;100955.28;5035135;28;19909;-78
2023/07/12 04:21:22;;;;;;;;;;;;;;;15.63;100.00;100962.00;5018134;28;19913;-79
2023/07/12 04:23:48;;;;;;;;;;;;;;;15.61;100.00;100970.22;5034891;28;19913;-80
2023/07/12 04:26:14;;;;;;;;;;;;;;;15.62;100.00;100969.22;5017859;28;19913;-77
2023/07/12 04:28:40;;;;;;;;;;;;;;;15.66;100.00;100975.94;5034952;28;19909;-78
2023/07/12 04:31:06;;;;;;;;;;;;;;;15.77;100.00;100982.78;5034715;28;19913;-78
2023/07/12 04:33:32;;;;;;;;;;;;;;;15.89;100.00;100987.84;5017135;28;19909;-79
2023/07/12 04:35:57;;;;;;;;;;;;;;;15.98;100.00;100994.84;5035560;28;19913;-78
2023/07/12 04:38:22;;;;;;;;;;;;;;;16.03;100.00;100990.66;5017095;28;19916;-79
2023/07/12 04:40:52;;;;;;;;;;;;;;;16.10;100.00;100996.16;5034645;28;19921;-78
2023/07/12 04:43:17;;;;;;;;;;;;;;;16.17;100.00;100999.00;5017457;28;19986;-77
2023/07/12 04:45:44;;;;;;;;;;;;;;;16.24;100.00;100997.28;5017083;28;19913;-77
2023/07/12 04:48:09;;;;;;;;;;;;;;;16.28;100.00;100993.25;5034724;28;20349;-78
2023/07/12 04:50:35;;;;;;;;;;;;;;;16.32;100.00;100980.34;5017050;28;19919;-78
2023/07/12 04:53:01;;;;;;;;;;;;;;;16.36;100.00;100995.94;5034619;28;20261;-79
2023/07/12 04:55:26;;;;;;;;;;;;;;;16.40;100.00;100993.72;5034892;28;19908;-78
2023/07/12 04:57:52;;;;;;;;;;;;;;;16.40;100.00;100997.25;5034111;28;19909;-78
2023/07/12 05:00:17;;;;;;;;;;;;;;;16.43;100.00;100993.38;5016626;28;19917;-78
2023/07/12 05:02:42;;;;;;;;;;;;;;;16.48;100.00;100993.72;5034704;28;19913;-79
2023/07/12 05:05:08;;;;;;;;;;;;;;;16.54;100.00;100990.31;5016786;28;19924;-79
2023/07/12 05:07:34;;;;;;;;;;;;;;;16.56;100.00;100998.19;5017488;28;19913;-79
2023/07/12 05:10:00;;;;;;;;;;;;;;;16.57;100.00;100995.34;5034371;28;19908;-78
2023/07/12 05:12:25;;;;;;;;;;;;;;;16.61;100.00;100995.00;5034518;28;19920;-79
2023/07/12 05:14:51;;;;;;;;;;;;;;;16.65;100.00;101002.53;5016921;28;19955;-78
2023/07/12 05:17:16;;;;;;;;;;;;;;;16.68;100.00;100994.09;5034915;28;19959;-79
2023/07/12 05:19:41;;;;;;;;;;;;;;;16.70;100.00;100992.06;5017744;28;20352;-79
2023/07/12 05:22:07;;;;;;;;;;;;;;;16.72;100.00;101005.34;5017197;28;19920;-80
2023/07/12 05:24:32;;;;;;;;;;;;;;;16.81;100.00;101006.97;5016703;28;19920;-79
2023/07/12 05:26:58;;;;;;;;;;;;;;;16.85;100.00;101005.59;5036529;28;20275;-79
2023/07/12 05:29:23;;;;;;;;;;;;;;;16.88;100.00;101010.69;5041411;28;19912;-79
2023/07/12 05:31:49;;;;;;;;;;;;;;;16.92;100.00;101013.84;5002302;28;20233;-79
2023/07/12 05:34:14;;;;;;;;;;;;;;;17.00;100.00;101021.00;5017424;28;20348;-79
2023/07/12 05:36:40;;;;;;;;;;;;;;;16.97;100.00;101019.50;5036596;28;19955;-78
2023/07/12 05:39:05;;;;;;;;;;;;;;;16.99;100.00;101016.63;5032800;28;19909;-78
2023/07/12 05:41:30;;;;;;;;;;;;;;;16.95;100.00;101020.72;5053706;28;19941;-79
2023/07/12 05:43:55;;;;;;;;;;;;;;;16.85;100.00;101020.88;5049555;28;19920;-80
2023/07/12 05:46:21;;;;;;;;;;;;;;;16.81;100.00;101014.19;5034658;28;20003;-80
2023/07/12 05:48:46;;;;;;;;;;;;;;;16.89;100.00;101022.25;5034529;28;20010;-78
2023/07/12 05:51:11;;;;;;;;;;;;;;;16.98;100.00;101028.44;5016390;28;19913;-77
2023/07/12 05:53:37;;;;;;;;;;;;;;;17.13;100.00;101032.03;5034184;28;19909;-81
2023/07/12 05:56:04;;;;;;;;;;;;;;;17.23;100.00;101035.31;5034448;28;20365;-82
2023/07/12 05:58:29;;;;;;;;;;;;;;;17.30;100.00;101037.28;5033419;28;20353;-78
2023/07/12 06:00:55;;;;;;;;;;;;;;;17.40;100.00;101033.34;5033525;28;19917;-81
2023/07/12 06:03:20;;;;;;;;;;;;;;;17.57;100.00;101031.38;5033855;28;19913;-80
2023/07/12 06:05:46;;;;;;;;;;;;;;;17.68;100.00;101048.13;5015708;28;19917;-90
2023/07/12 06:08:11;;;;;;;;;;;;;;;17.46;100.00;101050.63;5034318;28;19919;-77
2023/07/12 06:10:36;;;;;;;;;;;;;;;17.11;100.00;101060.94;5016535;28;20349;-81
2023/07/12 06:13:02;;;;;;;;;;;;;;;16.67;100.00;101056.91;5019320;28;20016;-86
2023/07/12 06:15:27;;;;;;;;;;;;;;;16.44;100.00;101056.00;5037564;28;19913;-83
2023/07/12 06:17:53;;;;;;;;;;;;;;;16.27;100.00;101053.34;5019825;28;19917;-82
2023/07/12 06:20:18;;;;;;;;;;;;;;;16.19;100.00;101056.88;5019790;28;20391;-83
2023/07/12 06:22:43;;;;;;;;;;;;;;;16.17;100.00;101060.75;5019399;28;20420;-81
2023/07/12 06:25:10;;;;;;;;;;;;;;;16.25;100.00;101076.84;5037236;28;19925;-83
2023/07/12 06:27:35;;;;;;;;;;;;;;;16.43;100.00;101073.09;5037046;28;19920;-77
2023/07/12 06:30:00;;;;;;;;;;;;;;;16.55;100.00;101077.09;5019180;28;19913;-76
2023/07/12 06:32:25;;;;;;;;;;;;;;;16.74;100.00;101070.50;5019333;28;19917;-77
2023/07/12 06:34:51;;;;;;;;;;;;;;;17.01;100.00;101076.44;5036905;28;19917;-88
2023/07/12 06:37:16;;;;;;;;;;;;;;;17.35;100.00;101075.25;5003777;28;20304;-82
2023/07/12 06:39:42;;;;;;;;;;;;;;;17.74;100.00;101072.44;5019474;28;20442;-80
2023/07/12 06:42:07;;;;;;;;;;;;;;;18.18;100.00;101064.69;5019093;28;19917;-77
2023/07/12 06:44:33;;;;;;;;;;;;;;;18.57;100.00;101069.81;5019704;28;20357;-82
2023/07/12 06:46:58;;;;;;;;;;;;;;;18.72;100.00;101077.03;5036815;28;19924;-80
2023/07/12 06:49:23;;;;;;;;;;;;;;;18.72;100.00;101077.91;5018585;28;19979;-80
2023/07/12 06:51:49;;;;;;;;;;;;;;;18.76;100.00;101076.47;5002547;28;20011;-78
2023/07/12 06:54:15;;;;;;;;;;;;;;;18.70;100.00;101074.53;5018695;28;19917;-80
2023/07/12 06:56:40;;;;;;;;;;;;;;;18.62;100.00;101070.09;5036840;28;19935;-78
2023/07/12 06:59:06;;;;;;;;;;;;;;;18.63;100.00;101082.53;5036272;28;20326;-80
2023/07/12 07:01:31;;;;;;;;;;;;;;;18.52;100.00;101082.16;5036435;28;19921;-80
2023/07/12 07:03:56;;;;;;;;;;;;;;;18.39;100.00;101096.28;5036196;28;19921;-78
2023/07/12 07:06:22;;;;;;;;;;;;;;;18.26;100.00;101095.06;5035923;28;19963;-78
2023/07/12 07:08:47;;;;;;;;;;;;;;;18.18;100.00;101099.69;5035743;28;19917;-76
2023/07/12 07:11:13;;;;;;;;;;;;;;;18.17;100.00;101106.94;5036100;28;19959;-77
2023/07/12 07:13:38;;;;;;;;;;;;;;;18.14;100.00;101104.59;5036379;28;19917;-79
2023/07/12 07:16:04;;;;;;;;;;;;;;;18.08;100.00;101108.03;5036121;28;20428;-80
2023/07/12 07:18:29;;;;;;;;;;;;;;;18.04;100.00;101112.94;5019859;28;19940;-87
2023/07/12 07:20:58;;;;;;;;;;;;;;;18.08;100.00;101113.41;5019776;28;20349;-85
2023/07/12 07:23:23;;;;;;;;;;;;;;;18.03;100.00;101130.09;5036033;28;20349;-78
2023/07/12 07:25:48;;;;;;;;;;;;;;;17.85;100.00;101127.69;5035849;28;19923;-81
2023/07/12 07:28:14;;;;;;;;;;;;;;;17.86;100.00;101123.97;5036225;28;19917;-78
2023/07/12 07:30:39;;;;;;;;;;;;;;;18.08;100.00;101126.88;5036333;28;19990;-75
2023/07/12 07:33:05;;;;;;;;;;;;;;;18.27;100.00;101131.75;5035990;28;19924;-76
2023/07/12 07:35:30;;;;;;;;;;;;;;;18.60;100.00;101128.72;5017628;28;20355;-79
2023/07/12 07:37:55;;;;;;;;;;;;;;;19.02;100.00;101126.41;5035651;28;20325;-80
2023/07/12 07:40:20;;;;;;;;;;;;;;;19.22;100.00;101134.75;5035436;28;19987;-78
2023/07/12 07:42:46;;;;;;;;;;;;;;;19.39;100.00;101143.44;5017398;28;19925;-76
2023/07/12 07:45:11;;;;;;;;;;;;;;;19.41;100.00;101145.94;5035709;28;19972;-79
2023/07/12 07:47:37;;;;;;;;;;;;;;;19.18;100.00;101150.47;5035468;28;20343;-78
2023/07/12 07:50:02;;;;;;;;;;;;;;;18.81;100.00;101148.69;5035139;28;19921;-80
2023/07/12 07:52:28;;;;;;;;;;;;;;;18.62;100.00;101161.69;5035595;28;19959;-80
2023/07/12 07:54:53;;;;;;;;;;;;;;;18.64;100.00;101167.72;5036356;28;19925;-79
2023/07/12 07:57:18;;;;;;;;;;;;;;;18.79;100.00;101173.13;5035906;28;20487;-76
2023/07/12 07:59:43;;;;;;;;;;;;;;;18.82;100.00;101170.09;5037279;28;19952;-83
2023/07/12 08:02:10;;;;;;;;;;;;;;;18.88;100.00;101178.47;5037562;28;20249;-77
2023/07/12 08:04:36;;;;;;;;;;;;;;;18.99;100.00;101173.47;5035046;28;20355;-77
2023/07/12 08:07:02;;;;;;;;;;;;;;;19.09;100.00;101177.72;5035064;28;19917;-78
2023/07/12 08:09:27;;;;;;;;;;;;;;;19.13;100.00;101174.47;5035680;28;20365;-76
2023/07/12 08:11:53;;;;;;;;;;;;;;;19.18;100.00;101173.91;5034966;28;19971;-79
2023/07/12 08:14:20;;;;;;;;;;;;;;;19.23;100.00;101187.69;5035232;28;19928;-80
2023/07/12 08:16:46;;;;;;;;;;;;;;;19.54;100.00;101186.56;5035490;28;19913;-80
2023/07/12 08:19:11;;;;;;;;;;;;;;;19.60;100.00;101190.38;5035419;28;20019;-81
2023/07/12 08:21:36;;;;;;;;;;;;;;;19.61;100.00;101195.59;5035257;28;19917;-80
2023/07/12 08:24:01;;;;;;;;;;;;;;;19.69;100.00;101186.53;5017255;28;19924;-79
2023/07/12 08:26:26;;;;;;;;;;;;;;;19.93;100.00;101196.19;5034946;28;20353;-80
2023/07/12 08:28:52;;;;;;;;;;;;;;;19.90;100.00;101194.69;5034833;28;19917;-79
2023/07/12 08:31:17;;;;;;;;;;;;;;;19.80;100.00;101198.75;5035041;28;19917;-81
2023/07/12 08:33:44;;;;;;;;;;;;;;;20.08;100.00;101201.53;5034414;28;19952;-80
2023/07/12 08:36:09;;;;;;;;;;;;;;;20.21;100.00;101203.50;5034496;28;20385;-83
2023/07/12 08:38:34;;;;;;;;;;;;;;;20.24;100.00;101217.47;5034822;28;19920;-82
2023/07/12 08:41:00;;;;;;;;;;;;;;;20.10;100.00;101210.25;5035340;28;19920;-79
2023/07/12 08:43:29;;;;;;;;;;;;;;;19.78;100.00;101219.69;5035080;28;19917;-81
2023/07/12 08:45:56;;;;;;;;;;;;;;;19.59;100.00;101210.31;5035860;28;19917;-84
2023/07/12 08:48:23;;;;;;;;;;;;;;;19.97;100.00;101215.53;5035099;28;19913;-82
2023/07/12 08:50:49;;;;;;;;;;;;;;;20.56;100.00;101222.50;5035591;28;20357;-85
2023/07/12 08:53:20;;;;;;;;;;;;;;;21.09;100.00;101224.75;5034586;28;19913;-85
2023/07/12 08:55:45;;;;;;;;;;;;;;;21.64;100.00;101230.25;5034847;28;19959;-83
2023/07/12 08:58:17;;;;;;;;;;;;;;;21.91;100.00;101239.28;5034263;28;19917;-89
2023/07/12 09:00:43;;;;;;;;;;;;;;;21.55;100.00;101245.00;5034772;28;19917;-83
2023/07/12 09:03:08;;;;;;;;;;;;;;;21.24;100.00;101243.56;5016237;28;19928;-77
2023/07/12 09:05:33;;;;;;;;;;;;;;;21.53;100.00;101238.94;5034125;28;19917;-77
2023/07/12 09:08:08;;;;;;;;;;;;;;;21.90;100.00;101239.47;5034288;28;20403;-77
2023/07/12 09:10:39;;;;;;;;;;;;;;;21.69;100.00;101241.31;5033993;28;20280;-76
2023/07/12 09:13:05;;;;;;;;;;;;;;;21.28;100.00;101236.72;5033884;28;19974;-76
2023/07/12 09:15:33;;;;;;;;;;;;;;;21.01;100.00;101243.88;5034141;28;20416;-76
2023/07/12 09:17:59;;;;;;;;;;;;;;;21.02;100.00;101246.38;5033687;28;19913;-76
2023/07/12 09:20:29;;;;;;;;;;;;;;;20.91;100.00;101245.03;5033575;28;19982;-76
2023/07/12 09:22:55;;;;;;;;;;;;;;;20.67;100.00;101254.44;5033685;28;20428;-77
2023/07/12 09:25:21;;;;;;;;;;;;;;;20.51;100.00;101251.97;5016775;28;19917;-75
2023/07/12 09:27:48;;;;;;;;;;;;;;;20.85;100.00;101255.81;5016225;28;19913;-76
2023/07/12 09:30:17;;;;;;;;;;;;;;;21.52;100.00;101250.81;5033809;28;19924;-77
2023/07/12 09:32:43;;;;;;;;;;;;;;;22.43;100.00;101257.75;5033219;28;20439;-78
2023/07/12 09:35:27;;;;;;;;;;;;;;;22.60;100.00;101253.59;5015655;28;19921;-76
2023/07/12 09:37:59;;;;;;;;;;;;;;;22.47;100.00;101267.97;5033183;28;19913;-80
2023/07/12 09:40:27;;;;;;;;;;;;;;;22.31;100.00;101257.50;5033408;28;20019;-76
2023/07/12 09:42:55;;;;;;;;;;;;;;;22.49;100.00;101252.31;5034158;28;19917;-78
2023/07/12 09:45:21;;;;;;;;;;;;;;;22.34;100.00;101254.41;5033291;28;19913;-78
2023/07/12 09:48:26;;;;;;;;;;;;;;;22.56;100.00;101262.31;5018997;28;19913;-76
2023/07/12 09:51:04;;;;;;;;;;;;;;;22.99;100.00;101268.16;4957133;29;19991;-77
2023/07/12 09:53:36;;;;;;;;;;;;;;;23.56;100.00;101260.28;4958901;29;20018;-76
2023/07/12 09:56:06;;;;;;;;;;;;;;;23.57;97.98;101261.97;4989670;28;20366;-77
2023/07/12 09:58:37;;;;;;;;;;;;;;;22.75;100.00;101263.38;5039086;28;19917;-76
2023/07/12 10:01:11;;;;;;;;;;;;;;;22.93;100.00;101260.00;5037748;28;20111;-78
2023/07/12 10:03:38;;;;;;;;;;;;;;;23.26;100.00;101257.28;5038267;28;19948;-77
2023/07/12 10:06:27;;;;;;;;;;;;;;;23.80;99.50;101252.44;5038421;28;19948;-79
2023/07/12 10:09:15;;;;;;;;;;;;;;;24.49;86.21;101240.94;5027017;28;19913;-76
2023/07/12 10:12:03;;;;;;;;;;;;;;;24.46;83.02;101259.34;5037514;28;20296;-76
2023/07/12 10:14:33;;;;;;;;;;;;;;;23.96;90.86;101242.16;5036693;28;20344;-76
2023/07/12 10:16:59;;;;;;;;;;;;;;;23.53;97.99;101254.47;5036562;28;19917;-78
2023/07/12 10:19:36;;;;;;;;;;;;;;;23.55;100.00;101255.06;5036847;28;19971;-79
2023/07/12 10:22:03;;;;;;;;;;;;;;;23.83;96.21;101262.06;5036867;28;19912;-77
2023/07/12 10:24:36;;;;;;;;;;;;;;;23.80;97.42;101263.31;5036497;28;19913;-77
2023/07/12 10:27:04;;;;;;;;;;;;;;;23.31;98.49;101264.78;5036375;28;19921;-78
2023/07/12 10:29:41;;;;;;;;;;;;;;;22.24;100.00;101273.72;5036476;28;20016;-78
2023/07/12 10:32:14;;;;;;;;;;;;;;;21.92;100.00;101275.34;5036640;28;19913;-77
2023/07/12 10:34:44;;;;;;;;;;;;;;;22.12;100.00;101273.50;5036560;28;19924;-76
2023/07/12 10:37:17;;;;;;;;;;;;;;;22.41;100.00;101276.06;5036491;28;19917;-75
2023/07/12 10:39:42;;;;;;;;;;;;;;;22.43;100.00;101290.28;5037312;28;19936;-79
2023/07/12 10:42:11;;;;;;;;;;;;;;;23.01;100.00;101281.50;5036660;28;20284;-74
2023/07/12 10:44:40;;;;;;;;;;;;;;;23.48;95.38;101279.53;5036178;28;19913;-75
2023/07/12 10:47:09;;;;;;;;;;;;;;;23.76;88.49;101297.38;5036177;28;19943;-76
2023/07/12 10:49:41;;;;;;;;;;;;;;;23.24;98.17;101286.50;5018502;28;19913;-77
2023/07/12 10:52:09;;;;;;;;;;;;;;;22.78;100.00;101290.06;5036253;28;19913;-77
2023/07/12 10:54:34;;;;;;;;;;;;;;;22.67;100.00;101286.13;5036232;28;19913;-78
2023/07/12 10:57:21;;;;;;;;;;;;;;;23.17;96.47;101283.81;5035921;28;19919;-77
2023/07/12 10:59:47;;;;;;;;;;;;;;;23.29;92.12;101291.28;5035759;28;19961;-78
2023/07/12 11:02:19;;;;;;;;;;;;;;;23.12;98.89;101290.91;5036514;28;19921;-77
2023/07/12 11:04:46;;;;;;;;;;;;;;;23.02;95.76;101300.28;5018435;28;19913;-79
2023/07/12 11:07:11;;;;;;;;;;;;;;;23.26;95.33;101306.13;5035897;28;19914;-78
2023/07/12 11:09:47;;;;;;;;;;;;;;;23.58;94.92;101300.81;5035494;28;20211;-78
2023/07/12 11:12:12;;;;;;;;;;;;;;;24.11;86.67;101303.31;5036332;28;19913;-76
2023/07/12 11:14:37;;;;;;;;;;;;;;;24.19;89.74;101312.25;5018029;28;19951;-77
2023/07/12 11:17:10;;;;;;;;;;;;;;;24.06;84.28;101313.16;5035318;28;19919;-79
2023/07/12 11:19:35;;;;;;;;;;;;;;;23.88;81.92;101317.41;5035603;28;19917;-77
2023/07/12 11:22:17;;;;;;;;;;;;;;;23.12;88.91;101318.03;5017574;28;19913;-81
2023/07/12 11:24:48;;;;;;;;;;;;;;;23.39;88.55;101314.25;5035786;28;20008;-78
2023/07/12 11:27:32;;;;;;;;;;;;;;;23.68;80.88;101314.78;5035532;28;19967;-75
2023/07/12 11:30:08;;;;;;;;;;;;;;;23.96;84.08;101318.22;5036173;28;19959;-86
2023/07/12 11:32:36;;;;;;;;;;;;;;;25.19;73.48;101313.38;5036133;28;19913;-83
2023/07/12 11:35:13;;;;;;;;;;;;;;;26.48;68.02;101321.41;5035424;28;19913;-81
2023/07/12 11:37:43;;;;;;;;;;;;;;;27.50;62.02;101326.81;5035788;28;19983;-83
2023/07/12 11:40:22;;;;;;;;;;;;;;;27.63;57.42;101312.91;5035278;28;20008;-76
2023/07/12 11:42:48;;;;;;;;;;;;;;;27.70;51.91;101315.50;5035289;28;19913;-77
2023/07/12 11:45:15;;;;;;;;;;;;;;;26.04;57.29;101316.19;5035037;28;19974;-79
2023/07/12 11:47:42;;;;;;;;;;;;;;;25.17;71.76;101317.16;5035816;28;19913;-80
2023/07/12 11:50:12;;;;;;;;;;;;;;;25.54;70.35;101327.25;5035755;28;19913;-79
2023/07/12 11:52:37;;;;;;;;;;;;;;;26.19;65.17;101317.66;5035162;28;20349;-81
2023/07/12 11:55:03;;;;;;;;;;;;;;;26.16;64.32;101329.03;5035504;28;19916;-80
2023/07/12 11:57:37;;;;;;;;;;;;;;;26.34;60.99;101315.34;5018962;28;19917;-84
2023/07/12 12:00:13;;;;;;;;;;;;;;;26.66;58.45;101323.25;5036477;28;19920;-85
2023/07/12 12:02:38;;;;;;;;;;;;;;;25.91;56.43;101337.31;5036661;28;20004;-86
2023/07/12 12:05:04;;;;;;;;;;;;;;;24.80;64.08;101340.75;5037072;28;19979;-86
2023/07/12 12:07:37;;;;;;;;;;;;;;;24.88;71.30;101331.47;5035746;28;19912;-82
2023/07/12 12:10:04;;;;;;;;;;;;;;;25.16;62.88;101336.44;5035517;28;19999;-84
2023/07/12 12:12:31;;;;;;;;;;;;;;;25.23;63.03;101348.09;5035125;28;19963;-82
2023/07/12 12:14:57;;;;;;;;;;;;;;;25.67;56.93;101329.00;5035786;28;20428;-86
2023/07/12 12:17:24;;;;;;;;;;;;;;;25.24;56.70;101343.47;5035390;28;19963;-82
2023/07/12 12:19:49;;;;;;;;;;;;;;;24.56;63.52;101339.63;5035469;28;19917;-83
2023/07/12 12:22:16;;;;;;;;;;;;;;;24.14;65.32;101325.66;5018635;28;19917;-84
2023/07/12 12:24:44;;;;;;;;;;;;;;;24.86;65.25;101328.97;5036285;28;19936;-82
2023/07/12 12:27:21;;;;;;;;;;;;;;;25.43;61.46;101339.75;5035767;28;19939;-83